Time;durP1;ratioP1;P1;durP2;ratioP2;P2;SDS_P1;SDS_P2;PMS_P1;PMS_P2;Temp;Humidity;BMP_temperature;BMP_pressure;BME280_temperature;BME280_humidity;BME280_pressure;Samples;Min_cycle;Max_cycle;Signal;HPM_P1;HPM_P2
2022/02/25 00:00:00;;;;;;;;;;;8.40;99.10;8.80;100337.00;;;;337317;28;94606;-87
2022/02/25 00:00:12;;;;;;;;;;;8.40;98.90;8.90;100335.00;;;;337244;28;92103;-87
2022/02/25 00:00:25;;;;;;;;;;;8.40;98.90;8.80;100338.00;;;;336199;28;96079;-87
2022/02/25 00:00:36;;;;;;;;;;;8.40;99.10;8.70;100331.00;;;;337374;28;91897;-88
2022/02/25 00:00:48;;;;;;;;;;;8.40;98.90;8.70;100335.00;;;;337887;28;95941;-87
2022/02/25 00:01:00;;;;;;;;;;;8.40;98.60;8.70;100345.00;;;;332371;29;91245;-87
2022/02/25 00:01:12;;;;;;;;;;;8.40;98.30;8.70;100344.00;;;;334950;29;95105;-87
2022/02/25 00:01:25;;;;;;;;;;;8.30;98.40;8.80;100338.00;;;;337268;28;91399;-87
2022/02/25 00:01:37;;;;;;;;;;;8.40;98.60;8.80;100341.00;;;;337630;28;95858;-87
2022/02/25 00:01:49;;;;;;;;;;;8.40;98.40;8.70;100339.00;;;;335805;28;92149;-87
2022/02/25 00:02:01;;;;;;;;;;;8.30;98.40;8.70;100344.00;;;;337638;28;93179;-87
2022/02/25 00:02:13;;;;;;;;;;;8.30;98.20;8.80;100337.00;;;;337340;28;91933;-87
2022/02/25 00:02:26;;;;;;;;;;;8.30;98.50;8.80;100344.00;;;;335939;28;96867;-88
2022/02/25 00:02:38;;;;;;;;;;;8.30;98.80;8.80;100335.00;;;;334610;29;91839;-88
2022/02/25 00:02:50;;;;;;;;;;;8.40;99.00;8.80;100342.00;;;;336346;28;95833;-87
2022/02/25 00:03:02;;;;;;;;;;;8.30;98.60;8.70;100336.00;;;;336150;28;91266;-87
2022/02/25 00:03:14;;;;;;;;;;;8.30;98.40;8.80;100344.00;;;;336367;28;92392;-87
2022/02/25 00:03:27;;;;;;;;;;;8.30;98.40;8.90;100346.00;;;;335877;28;92667;-87
2022/02/25 00:03:38;;;;;;;;;;;8.30;98.80;8.80;100347.00;;;;336479;28;95727;-88
2022/02/25 00:03:50;;;;;;;;;;;8.30;98.60;8.80;100339.00;;;;337087;28;92262;-88
2022/02/25 00:04:02;;;;;;;;;;;8.30;98.60;8.70;100342.00;;;;337539;28;95909;-87
2022/02/25 00:04:14;;;;;;;;;;;8.30;98.40;8.70;100338.00;;;;337370;28;91911;-87
2022/02/25 00:04:26;;;;;;;;;;;8.30;98.30;8.70;100344.00;;;;338850;28;94678;-87
2022/02/25 00:04:38;;;;;;;;;;;8.30;98.30;8.80;100344.00;;;;341194;28;92033;-87
2022/02/25 00:04:50;;;;;;;;;;;8.30;98.40;8.80;100341.00;;;;339462;28;93533;-87
2022/02/25 00:05:02;;;;;;;;;;;8.30;98.60;8.70;100342.00;;;;338830;28;90401;-88
2022/02/25 00:05:13;;;;;;;;;;;8.30;98.50;8.70;100341.00;;;;338993;28;92410;-87
2022/02/25 00:05:26;;;;;;;;;;;8.30;98.70;8.70;100342.00;;;;338526;28;92140;-87
2022/02/25 00:05:37;;;;;;;;;;;8.30;98.40;8.70;100351.00;;;;338943;28;93480;-87
2022/02/25 00:05:49;;;;;;;;;;;8.30;98.50;8.70;100345.00;;;;337418;28;91636;-88
2022/02/25 00:06:01;;;;;;;;;;;8.30;98.60;8.80;100351.00;;;;340159;28;96079;-88
2022/02/25 00:06:13;;;;;;;;;;;8.30;98.70;8.80;100346.00;;;;340113;28;91132;-88
2022/02/25 00:06:26;;;;;;;;;;;8.30;98.90;8.80;100351.00;;;;337572;28;94725;-87
2022/02/25 00:06:38;;;;;;;;;;;8.30;99.00;8.80;100347.00;;;;340034;28;91251;-87
2022/02/25 00:06:50;;;;;;;;;;;8.30;99.10;8.80;100344.00;;;;338502;28;93052;-88
2022/02/25 00:07:02;;;;;;;;;;;8.30;99.30;8.90;100347.00;;;;336519;28;91265;-88
2022/02/25 00:07:14;;;;;;;;;;;8.30;99.00;8.90;100345.00;;;;334992;29;94944;-88
2022/02/25 00:07:26;;;;;;;;;;;8.30;99.00;8.90;100340.00;;;;334656;29;92078;-87
2022/02/25 00:07:38;;;;;;;;;;;8.30;99.20;8.90;100346.00;;;;336218;28;95743;-87
2022/02/25 00:07:50;;;;;;;;;;;8.30;99.10;8.80;100344.00;;;;337806;28;92089;-88
2022/02/25 00:08:02;;;;;;;;;;;8.30;98.90;8.80;100337.00;;;;341241;28;95915;-87
2022/02/25 00:08:14;;;;;;;;;;;8.30;98.90;8.80;100350.00;;;;338738;28;92060;-87
2022/02/25 00:08:27;;;;;;;;;;;8.40;98.90;8.90;100341.00;;;;338868;28;94620;-88
2022/02/25 00:08:39;;;;;;;;;;;8.30;98.90;8.90;100349.00;;;;341337;28;91959;-87
2022/02/25 00:08:50;;;;;;;;;;;8.30;99.00;8.90;100345.00;;;;337593;28;95720;-88
2022/02/25 00:09:05;;;;;;;;;;;8.30;99.00;8.90;100342.00;;;;337464;28;91281;-87
2022/02/25 00:09:17;;;;;;;;;;;8.40;99.00;9.00;100346.00;;;;338922;28;92769;-88
2022/02/25 00:09:29;;;;;;;;;;;8.40;99.20;9.00;100350.00;;;;335970;28;92153;-87
2022/02/25 00:09:41;;;;;;;;;;;8.40;99.20;9.00;100344.00;;;;336289;28;96093;-87
2022/02/25 00:09:53;;;;;;;;;;;8.40;99.20;9.00;100347.00;;;;338366;28;92138;-88
2022/02/25 00:10:06;;;;;;;;;;;8.40;99.20;9.00;100352.00;;;;341371;28;94876;-88
2022/02/25 00:10:18;;;;;;;;;;;8.40;99.20;9.10;100346.00;;;;338472;28;91081;-87
2022/02/25 00:10:30;;;;;;;;;;;8.40;99.20;9.00;100349.00;;;;337545;28;94525;-88
2022/02/25 00:10:41;;;;;;;;;;;8.40;99.20;9.00;100342.00;;;;338616;28;92049;-87
2022/02/25 00:10:53;;;;;;;;;;;8.40;99.00;9.00;100342.00;;;;339169;28;95714;-87
2022/02/25 00:11:05;;;;;;;;;;;8.40;98.80;9.00;100349.00;;;;336083;28;91282;-87
2022/02/25 00:11:17;;;;;;;;;;;8.40;98.80;9.00;100346.00;;;;337760;28;92307;-87
2022/02/25 00:11:28;;;;;;;;;;;8.40;98.90;9.00;100345.00;;;;338681;28;91897;-87
2022/02/25 00:11:40;;;;;;;;;;;8.40;98.90;9.00;100350.00;;;;336281;28;96306;-87
2022/02/25 00:11:52;;;;;;;;;;;8.50;98.90;8.90;100344.00;;;;337412;28;91103;-88
2022/02/25 00:12:04;;;;;;;;;;;8.50;98.70;8.90;100340.00;;;;337597;28;96069;-87
2022/02/25 00:12:16;;;;;;;;;;;8.50;98.50;9.00;100339.00;;;;334900;29;91887;-87
2022/02/25 00:12:28;;;;;;;;;;;8.50;98.60;9.00;100354.00;;;;334590;29;96274;-88
2022/02/25 00:12:40;;;;;;;;;;;8.50;98.70;8.90;100344.00;;;;337419;28;91314;-87
2022/02/25 00:12:51;;;;;;;;;;;8.50;98.40;8.90;100335.00;;;;335652;28;93040;-88
2022/02/25 00:13:03;;;;;;;;;;;8.50;98.20;8.80;100342.00;;;;338575;28;91322;-87
2022/02/25 00:13:15;;;;;;;;;;;8.50;98.10;9.00;100348.00;;;;337555;28;95305;-87
2022/02/25 00:13:28;;;;;;;;;;;8.40;98.30;9.00;100352.00;;;;338598;28;92044;-88
2022/02/25 00:13:40;;;;;;;;;;;8.50;98.80;9.10;100348.00;;;;340360;28;94567;-87
2022/02/25 00:13:52;;;;;;;;;;;8.50;98.70;9.10;100340.00;;;;337794;28;92044;-87
2022/02/25 00:14:04;;;;;;;;;;;8.50;98.90;9.00;100352.00;;;;338925;28;94743;-87
2022/02/25 00:14:20;;;;;;;;;;;8.50;98.50;8.90;100350.00;;;;335998;28;92076;-88
2022/02/25 00:14:32;;;;;;;;;;;8.50;98.10;9.00;100347.00;;;;337509;28;94839;-87
2022/02/25 00:14:44;;;;;;;;;;;8.50;98.30;9.00;100356.00;;;;337315;28;92029;-87
2022/02/25 00:14:56;;;;;;;;;;;8.50;98.30;9.00;100350.00;;;;337507;28;96429;-88
2022/02/25 00:15:07;;;;;;;;;;;8.50;98.40;9.00;100354.00;;;;339975;28;91277;-87
2022/02/25 00:15:19;;;;;;;;;;;8.50;98.60;9.10;100353.00;;;;337506;28;94932;-88
2022/02/25 00:15:31;;;;;;;;;;;8.50;98.70;9.10;100349.00;;;;338583;28;92571;-87
2022/02/25 00:15:43;;;;;;;;;;;8.50;98.70;9.00;100353.00;;;;337446;28;95937;-87
2022/02/25 00:15:57;;;;;;;;;;;8.50;98.60;9.10;100345.00;;;;338545;28;92115;-88
2022/02/25 00:16:10;;;;;;;;;;;8.50;98.60;9.10;100355.00;;;;338689;28;94022;-87
2022/02/25 00:16:21;;;;;;;;;;;8.50;98.60;8.90;100360.00;;;;338469;28;92156;-88
2022/02/25 00:16:33;;;;;;;;;;;8.50;98.10;9.00;100358.00;;;;337463;28;95826;-87
2022/02/25 00:16:45;;;;;;;;;;;8.50;98.10;9.00;100349.00;;;;337293;28;92040;-87
2022/02/25 00:16:57;;;;;;;;;;;8.50;98.10;9.00;100351.00;;;;336255;28;93473;-88
2022/02/25 00:17:09;;;;;;;;;;;8.50;98.20;9.00;100350.00;;;;337410;28;90550;-87
2022/02/25 00:17:21;;;;;;;;;;;8.50;97.70;8.90;100363.00;;;;337596;28;92668;-87
2022/02/25 00:17:33;;;;;;;;;;;8.50;97.60;8.90;100355.00;;;;337473;28;91852;-87
2022/02/25 00:17:44;;;;;;;;;;;8.50;97.40;9.00;100357.00;;;;336539;28;95690;-88
2022/02/25 00:17:56;;;;;;;;;;;8.50;97.70;9.10;100355.00;;;;337534;28;92074;-87
2022/02/25 00:18:08;;;;;;;;;;;8.50;97.90;9.00;100355.00;;;;337720;28;95617;-87
2022/02/25 00:18:20;;;;;;;;;;;8.50;97.60;9.00;100346.00;;;;336357;28;91013;-88
2022/02/25 00:18:32;;;;;;;;;;;8.50;97.50;9.00;100365.00;;;;339082;28;95194;-87
2022/02/25 00:18:44;;;;;;;;;;;8.50;97.20;9.00;100348.00;;;;337478;28;92126;-87
2022/02/25 00:18:56;;;;;;;;;;;8.50;97.20;9.00;100360.00;;;;340732;28;82532;-87
2022/02/25 00:19:08;;;;;;;;;;;8.50;97.00;9.00;100358.00;;;;337235;28;90654;-87
2022/02/25 00:19:20;;;;;;;;;;;8.50;97.20;9.00;100356.00;;;;340012;28;83484;-87
2022/02/25 00:19:31;;;;;;;;;;;8.50;97.30;9.00;100361.00;;;;338611;28;94927;-87
2022/02/25 00:19:43;;;;;;;;;;;8.50;97.40;9.00;100357.00;;;;337553;28;83586;-87
2022/02/25 00:19:55;;;;;;;;;;;8.50;97.50;9.00;100351.00;;;;337851;28;94035;-87
2022/02/25 00:20:09;;;;;;;;;;;8.50;97.50;9.00;100359.00;;;;337017;28;83484;-87
2022/02/25 00:20:21;;;;;;;;;;;8.50;97.30;9.00;100356.00;;;;338660;28;96507;-87
2022/02/25 00:20:33;;;;;;;;;;;8.50;97.50;9.00;100362.00;;;;339386;28;82547;-87
2022/02/25 00:20:46;;;;;;;;;;;8.50;97.50;8.90;100353.00;;;;337222;28;96811;-87
2022/02/25 00:20:58;;;;;;;;;;;8.50;97.00;8.80;100353.00;;;;338107;28;83327;-88
2022/02/25 00:21:10;;;;;;;;;;;8.50;96.80;8.80;100352.00;;;;339979;28;95832;-87
2022/02/25 00:21:21;;;;;;;;;;;8.50;96.90;8.80;100360.00;;;;339418;28;82444;-87
2022/02/25 00:21:33;;;;;;;;;;;8.50;97.00;8.80;100359.00;;;;338603;28;96803;-87
2022/02/25 00:21:45;;;;;;;;;;;8.50;97.20;8.80;100359.00;;;;341861;28;83345;-87
2022/02/25 00:21:57;;;;;;;;;;;8.40;96.40;8.80;100358.00;;;;337266;28;97184;-87
2022/02/25 00:22:08;;;;;;;;;;;8.40;96.50;8.80;100361.00;;;;336781;28;83495;-87
2022/02/25 00:22:20;;;;;;;;;;;8.40;96.70;8.80;100358.00;;;;339296;28;97083;-87
2022/02/25 00:22:32;;;;;;;;;;;8.40;97.00;8.80;100358.00;;;;340770;28;83251;-87
2022/02/25 00:22:44;;;;;;;;;;;8.40;96.60;8.80;100352.00;;;;338613;28;95666;-87
2022/02/25 00:22:56;;;;;;;;;;;8.40;96.70;8.80;100358.00;;;;342000;28;83525;-88
2022/02/25 00:23:08;;;;;;;;;;;8.40;96.70;8.80;100357.00;;;;338701;28;93335;-87
2022/02/25 00:23:20;;;;;;;;;;;8.40;96.90;8.80;100348.00;;;;339373;28;83414;-87
2022/02/25 00:23:31;;;;;;;;;;;8.40;97.10;8.80;100363.00;;;;341202;28;96660;-88
2022/02/25 00:23:43;;;;;;;;;;;8.40;96.90;8.80;100357.00;;;;336407;28;83523;-87
2022/02/25 00:23:55;;;;;;;;;;;8.40;96.80;8.80;100359.00;;;;335961;28;96907;-87
2022/02/25 00:24:07;;;;;;;;;;;8.40;96.70;8.70;100356.00;;;;340752;28;83357;-87
2022/02/25 00:24:18;;;;;;;;;;;8.40;96.70;8.70;100363.00;;;;338654;28;94534;-87
2022/02/25 00:24:30;;;;;;;;;;;8.40;96.70;8.70;100354.00;;;;338188;28;82436;-87
2022/02/25 00:24:42;;;;;;;;;;;8.40;96.70;8.70;100361.00;;;;338559;28;94588;-87
2022/02/25 00:24:54;;;;;;;;;;;8.30;96.90;8.70;100353.00;;;;337049;28;83469;-87
2022/02/25 00:25:07;;;;;;;;;;;8.40;97.00;8.80;100356.00;;;;336024;28;94073;-87
2022/02/25 00:25:19;;;;;;;;;;;8.30;97.10;8.80;100351.00;;;;339296;28;83439;-87
2022/02/25 00:25:31;;;;;;;;;;;8.30;97.20;8.80;100361.00;;;;337276;28;95861;-87
2022/02/25 00:25:43;;;;;;;;;;;8.30;97.20;8.80;100351.00;;;;339162;28;83271;-87
2022/02/25 00:25:55;;;;;;;;;;;8.30;97.20;8.90;100357.00;;;;337234;28;96147;-87
2022/02/25 00:26:06;;;;;;;;;;;8.40;97.30;8.90;100356.00;;;;336702;28;83511;-87
2022/02/25 00:26:18;;;;;;;;;;;8.30;97.50;8.80;100358.00;;;;338655;28;96842;-87
2022/02/25 00:26:31;;;;;;;;;;;8.40;97.50;8.90;100353.00;;;;341990;28;83417;-87
2022/02/25 00:26:43;;;;;;;;;;;8.40;97.50;8.90;100354.00;;;;340029;28;94394;-87
2022/02/25 00:26:55;;;;;;;;;;;8.40;97.50;8.90;100347.00;;;;339447;28;83385;-87
2022/02/25 00:27:07;;;;;;;;;;;8.30;97.40;8.80;100357.00;;;;337388;28;95862;-88
2022/02/25 00:27:19;;;;;;;;;;;8.30;97.30;8.90;100354.00;;;;341882;28;83584;-87
2022/02/25 00:27:31;;;;;;;;;;;8.30;97.40;8.90;100356.00;;;;338626;28;93946;-87
2022/02/25 00:27:44;;;;;;;;;;;8.30;97.30;9.00;100360.00;;;;339093;28;83500;-87
2022/02/25 00:27:55;;;;;;;;;;;8.30;97.30;9.00;100350.00;;;;339331;28;94496;-87
2022/02/25 00:28:07;;;;;;;;;;;8.40;97.20;9.00;100359.00;;;;340563;28;83458;-87
2022/02/25 00:28:19;;;;;;;;;;;8.40;97.20;8.90;100349.00;;;;337221;28;96245;-87
2022/02/25 00:28:32;;;;;;;;;;;8.40;97.10;8.90;100362.00;;;;336726;28;83357;-87
2022/02/25 00:28:44;;;;;;;;;;;8.40;97.20;8.90;100359.00;;;;339871;28;96592;-87
2022/02/25 00:28:55;;;;;;;;;;;8.40;97.00;8.90;100352.00;;;;336726;28;82673;-87
2022/02/25 00:29:08;;;;;;;;;;;8.40;96.90;8.80;100356.00;;;;334769;29;94756;-87
2022/02/25 00:29:19;;;;;;;;;;;8.40;96.60;8.80;100364.00;;;;337664;28;82590;-88
2022/02/25 00:29:32;;;;;;;;;;;8.40;96.50;8.80;100356.00;;;;338610;28;96257;-87
2022/02/25 00:29:44;;;;;;;;;;;8.40;96.50;8.80;100359.00;;;;338161;28;83339;-87
2022/02/25 00:29:56;;;;;;;;;;;8.40;96.40;8.90;100353.00;;;;338709;28;95195;-87
2022/02/25 00:30:10;;;;;;;;;;;8.30;96.70;8.90;100359.00;;;;339344;28;82376;-88
2022/02/25 00:30:22;;;;;;;;;;;8.40;97.00;8.90;100361.00;;;;337307;28;97355;-87
2022/02/25 00:30:33;;;;;;;;;;;8.40;97.20;8.80;100356.00;;;;340743;28;82520;-87
2022/02/25 00:30:45;;;;;;;;;;;8.40;97.00;8.80;100358.00;;;;341030;28;93320;-87
2022/02/25 00:30:57;;;;;;;;;;;8.40;97.00;8.90;100355.00;;;;338944;28;83625;-87
2022/02/25 00:31:09;;;;;;;;;;;8.40;97.10;8.90;100354.00;;;;339992;28;96315;-87
2022/02/25 00:31:21;;;;;;;;;;;8.40;97.10;8.80;100362.00;;;;338761;28;83330;-87
2022/02/25 00:31:32;;;;;;;;;;;8.40;97.00;8.90;100358.00;;;;338632;28;93376;-87
2022/02/25 00:31:44;;;;;;;;;;;8.40;97.10;8.90;100361.00;;;;339269;28;83493;-87
2022/02/25 00:31:56;;;;;;;;;;;8.40;97.20;8.90;100365.00;;;;335980;28;97727;-87
2022/02/25 00:32:08;;;;;;;;;;;8.40;97.20;9.00;100364.00;;;;340692;28;83487;-88
2022/02/25 00:32:21;;;;;;;;;;;8.40;97.20;9.00;100360.00;;;;337243;28;95537;-87
2022/02/25 00:32:33;;;;;;;;;;;8.40;97.20;9.00;100361.00;;;;336367;28;83274;-87
2022/02/25 00:32:45;;;;;;;;;;;8.40;97.30;9.00;100365.00;;;;337187;28;93362;-87
2022/02/25 00:32:57;;;;;;;;;;;8.40;97.20;9.00;100353.00;;;;338153;28;83376;-87
2022/02/25 00:33:08;;;;;;;;;;;8.40;97.20;8.90;100354.00;;;;335987;28;96432;-87
2022/02/25 00:33:20;;;;;;;;;;;8.40;97.30;8.90;100357.00;;;;335347;28;83525;-87
2022/02/25 00:33:33;;;;;;;;;;;8.40;97.20;9.00;100357.00;;;;334680;29;97223;-87
2022/02/25 00:33:45;;;;;;;;;;;8.40;97.20;9.00;100364.00;;;;337714;28;82657;-86
2022/02/25 00:33:57;;;;;;;;;;;8.50;97.30;9.00;100354.00;;;;337993;28;97133;-88
2022/02/25 00:34:09;;;;;;;;;;;8.50;97.30;9.00;100358.00;;;;336751;28;83413;-87
2022/02/25 00:34:20;;;;;;;;;;;8.40;97.30;9.00;100362.00;;;;337171;28;96882;-87
2022/02/25 00:34:33;;;;;;;;;;;8.50;97.40;9.00;100367.00;;;;339401;28;82981;-87
2022/02/25 00:34:45;;;;;;;;;;;8.50;97.20;8.90;100365.00;;;;338617;28;96575;-87
2022/02/25 00:34:57;;;;;;;;;;;8.50;97.20;9.00;100365.00;;;;338041;28;83561;-87
2022/02/25 00:35:09;;;;;;;;;;;8.50;97.20;9.00;100362.00;;;;339974;28;96743;-87
2022/02/25 00:35:21;;;;;;;;;;;8.50;97.10;9.00;100364.00;;;;342073;28;83406;-87
2022/02/25 00:35:34;;;;;;;;;;;8.50;97.10;9.00;100363.00;;;;337263;28;96697;-87
2022/02/25 00:35:45;;;;;;;;;;;8.50;96.90;9.00;100359.00;;;;338129;28;82577;-88
2022/02/25 00:35:57;;;;;;;;;;;8.50;97.10;9.10;100362.00;;;;338561;28;94316;-88
2022/02/25 00:36:09;;;;;;;;;;;8.50;97.10;9.00;100359.00;;;;340838;28;83488;-87
2022/02/25 00:36:21;;;;;;;;;;;8.50;96.90;9.00;100358.00;;;;337297;28;96934;-88
2022/02/25 00:36:34;;;;;;;;;;;8.50;97.00;9.10;100358.00;;;;339334;28;82609;-87
2022/02/25 00:36:46;;;;;;;;;;;8.50;97.10;9.10;100352.00;;;;338349;28;92995;-87
2022/02/25 00:36:57;;;;;;;;;;;8.50;97.30;9.10;100361.00;;;;339204;28;83454;-87
2022/02/25 00:37:09;;;;;;;;;;;8.50;97.20;9.10;100361.00;;;;341588;28;94748;-87
2022/02/25 00:37:21;;;;;;;;;;;8.50;97.20;9.00;100362.00;;;;341944;28;83428;-87
2022/02/25 00:37:34;;;;;;;;;;;8.50;97.20;9.00;100363.00;;;;337444;28;96647;-87
2022/02/25 00:37:46;;;;;;;;;;;8.50;97.20;9.10;100359.00;;;;338212;28;82376;-87
2022/02/25 00:37:57;;;;;;;;;;;8.50;97.20;9.10;100365.00;;;;337193;28;96819;-88
2022/02/25 00:38:09;;;;;;;;;;;8.50;97.10;9.00;100362.00;;;;337030;28;83341;-87
2022/02/25 00:38:21;;;;;;;;;;;8.60;96.90;9.00;100364.00;;;;338758;28;96653;-87
2022/02/25 00:38:34;;;;;;;;;;;8.60;96.90;9.10;100357.00;;;;338297;28;83532;-88
2022/02/25 00:38:46;;;;;;;;;;;8.50;97.10;9.00;100361.00;;;;334898;29;96504;-87
2022/02/25 00:38:58;;;;;;;;;;;8.50;96.90;9.00;100361.00;;;;339438;28;83626;-87
2022/02/25 00:39:10;;;;;;;;;;;8.50;96.90;9.00;100360.00;;;;338853;28;95722;-89
2022/02/25 00:39:21;;;;;;;;;;;8.60;96.80;9.00;100357.00;;;;338174;28;83327;-88
2022/02/25 00:39:35;;;;;;;;;;;8.60;96.90;9.00;100359.00;;;;337574;28;95793;-88
2022/02/25 00:39:46;;;;;;;;;;;8.50;96.80;9.10;100349.00;;;;337774;28;82439;-87
2022/02/25 00:39:58;;;;;;;;;;;8.50;96.90;9.10;100352.00;;;;335963;28;97086;-87
2022/02/25 00:40:10;;;;;;;;;;;8.60;97.00;9.00;100356.00;;;;338249;28;83370;-87
2022/02/25 00:40:22;;;;;;;;;;;8.50;96.90;9.10;100355.00;;;;336127;28;94668;-88
2022/02/25 00:40:35;;;;;;;;;;;8.60;96.80;9.10;100356.00;;;;338244;28;83381;-87
2022/02/25 00:40:46;;;;;;;;;;;8.60;96.90;9.00;100363.00;;;;337450;28;95881;-87
2022/02/25 00:40:58;;;;;;;;;;;8.60;96.80;9.00;100360.00;;;;338249;28;82576;-88
2022/02/25 00:41:10;;;;;;;;;;;8.60;96.80;9.00;100355.00;;;;337587;28;93684;-87
2022/02/25 00:41:22;;;;;;;;;;;8.50;96.90;9.00;100363.00;;;;339486;28;83511;-87
2022/02/25 00:41:35;;;;;;;;;;;8.60;96.80;9.00;100355.00;;;;338873;28;93921;-87
2022/02/25 00:41:47;;;;;;;;;;;8.60;96.70;9.00;100364.00;;;;340878;28;83344;-87
2022/02/25 00:41:58;;;;;;;;;;;8.50;96.60;9.00;100362.00;;;;337337;28;97545;-88
2022/02/25 00:42:12;;;;;;;;;;;8.50;96.70;9.00;100359.00;;;;341041;28;83367;-87
2022/02/25 00:42:24;;;;;;;;;;;8.50;96.80;9.10;100363.00;;;;338694;28;96357;-87
2022/02/25 00:42:36;;;;;;;;;;;8.50;96.70;9.00;100362.00;;;;339284;28;83261;-87
2022/02/25 00:42:48;;;;;;;;;;;8.50;96.70;9.10;100362.00;;;;338143;28;96550;-88
2022/02/25 00:43:00;;;;;;;;;;;8.50;96.90;9.00;100356.00;;;;340606;28;83439;-87
2022/02/25 00:43:12;;;;;;;;;;;8.60;96.90;9.00;100359.00;;;;340297;28;93432;-87
2022/02/25 00:43:24;;;;;;;;;;;8.60;96.90;9.10;100359.00;;;;339621;28;82606;-87
2022/02/25 00:43:36;;;;;;;;;;;8.60;96.70;9.10;100364.00;;;;337573;28;94210;-87
2022/02/25 00:43:47;;;;;;;;;;;8.60;96.80;9.00;100363.00;;;;339516;28;82463;-87
2022/02/25 00:43:59;;;;;;;;;;;8.60;96.60;9.10;100358.00;;;;340031;28;95873;-87
2022/02/25 00:44:11;;;;;;;;;;;8.60;96.70;9.10;100357.00;;;;339694;28;83219;-87
2022/02/25 00:44:23;;;;;;;;;;;8.60;96.60;9.00;100365.00;;;;338736;28;97692;-87
2022/02/25 00:44:37;;;;;;;;;;;8.60;96.60;9.00;100366.00;;;;340665;28;83391;-87
2022/02/25 00:44:49;;;;;;;;;;;8.60;96.50;9.00;100357.00;;;;339915;28;97218;-87
2022/02/25 00:45:01;;;;;;;;;;;8.60;96.50;9.00;100363.00;;;;340711;28;83431;-87
2022/02/25 00:45:13;;;;;;;;;;;8.60;96.60;9.10;100361.00;;;;338576;28;96449;-88
2022/02/25 00:45:24;;;;;;;;;;;8.60;96.70;9.10;100365.00;;;;337754;28;83507;-87
2022/02/25 00:45:36;;;;;;;;;;;8.60;96.80;9.10;100367.00;;;;338544;28;97068;-87
2022/02/25 00:45:48;;;;;;;;;;;8.60;96.90;9.10;100367.00;;;;336451;28;83772;-87
2022/02/25 00:46:00;;;;;;;;;;;8.60;96.80;9.10;100354.00;;;;335884;28;96150;-87
2022/02/25 00:46:12;;;;;;;;;;;8.60;96.80;9.10;100360.00;;;;338032;28;83551;-87
2022/02/25 00:46:23;;;;;;;;;;;8.60;96.90;9.10;100361.00;;;;337351;28;95357;-87
2022/02/25 00:46:37;;;;;;;;;;;8.60;96.80;9.10;100361.00;;;;340634;28;83475;-87
2022/02/25 00:46:48;;;;;;;;;;;8.60;96.60;9.10;100362.00;;;;337216;28;94229;-88
2022/02/25 00:47:00;;;;;;;;;;;8.60;96.50;9.10;100360.00;;;;336708;28;83261;-87
2022/02/25 00:47:12;;;;;;;;;;;8.60;96.60;9.00;100367.00;;;;341340;28;93543;-87
2022/02/25 00:47:25;;;;;;;;;;;8.60;96.70;8.90;100364.00;;;;339348;28;83578;-87
2022/02/25 00:47:37;;;;;;;;;;;8.60;96.60;9.00;100369.00;;;;338720;28;94212;-87
2022/02/25 00:47:49;;;;;;;;;;;8.60;96.70;9.10;100371.00;;;;340719;28;82401;-88
2022/02/25 00:48:01;;;;;;;;;;;8.60;96.70;9.10;100368.00;;;;339802;28;95981;-88
2022/02/25 00:48:13;;;;;;;;;;;8.60;96.70;9.10;100368.00;;;;339413;28;83496;-87
2022/02/25 00:48:24;;;;;;;;;;;8.60;96.70;9.10;100359.00;;;;337251;28;94105;-87
2022/02/25 00:48:36;;;;;;;;;;;8.60;96.80;9.10;100362.00;;;;336382;28;84403;-87
2022/02/25 00:48:49;;;;;;;;;;;8.60;96.80;9.00;100363.00;;;;336896;28;95425;-87
2022/02/25 00:49:01;;;;;;;;;;;8.60;96.80;9.00;100364.00;;;;339736;28;83488;-87
2022/02/25 00:49:13;;;;;;;;;;;8.60;96.70;9.10;100364.00;;;;339892;28;94755;-87
2022/02/25 00:49:24;;;;;;;;;;;8.60;96.70;9.10;100364.00;;;;339395;28;82560;-87
2022/02/25 00:49:37;;;;;;;;;;;8.60;96.80;9.00;100359.00;;;;337284;28;95840;-87
2022/02/25 00:49:49;;;;;;;;;;;8.60;96.70;8.90;100365.00;;;;339724;28;83521;-87
2022/02/25 00:50:01;;;;;;;;;;;8.60;96.50;9.00;100364.00;;;;338441;28;97486;-87
2022/02/25 00:50:14;;;;;;;;;;;8.60;96.60;9.00;100368.00;;;;335465;29;82568;-87
2022/02/25 00:50:26;;;;;;;;;;;8.60;96.60;8.90;100366.00;;;;335926;28;96769;-87
2022/02/25 00:50:37;;;;;;;;;;;8.60;96.60;9.00;100359.00;;;;337830;28;83501;-87
2022/02/25 00:50:49;;;;;;;;;;;8.60;96.60;9.00;100364.00;;;;338583;28;96513;-87
2022/02/25 00:51:01;;;;;;;;;;;8.50;96.70;9.10;100366.00;;;;339361;28;83251;-87
2022/02/25 00:51:13;;;;;;;;;;;8.60;96.80;9.10;100370.00;;;;337291;28;95638;-87
2022/02/25 00:51:24;;;;;;;;;;;8.60;96.80;9.20;100368.00;;;;339293;28;83414;-88
2022/02/25 00:51:38;;;;;;;;;;;8.60;96.90;9.10;100369.00;;;;337198;28;97484;-87
2022/02/25 00:51:49;;;;;;;;;;;8.60;96.90;9.20;100363.00;;;;336874;28;83569;-88
2022/02/25 00:52:02;;;;;;;;;;;8.60;97.00;9.10;100364.00;;;;335211;28;97617;-87
2022/02/25 00:52:13;;;;;;;;;;;8.60;96.90;9.10;100360.00;;;;339257;28;83412;-87
2022/02/25 00:52:25;;;;;;;;;;;8.60;96.80;9.10;100374.00;;;;338159;28;95545;-87
2022/02/25 00:52:38;;;;;;;;;;;8.60;96.80;9.00;100360.00;;;;336610;28;83471;-87
2022/02/25 00:52:50;;;;;;;;;;;8.60;96.70;9.10;100370.00;;;;337243;28;94122;-87
2022/02/25 00:53:02;;;;;;;;;;;8.60;96.70;9.10;100362.00;;;;338112;28;82429;-87
2022/02/25 00:53:13;;;;;;;;;;;8.60;96.70;9.20;100373.00;;;;337249;28;96571;-87
2022/02/25 00:53:25;;;;;;;;;;;8.60;96.70;9.20;100374.00;;;;340730;28;83371;-88
2022/02/25 00:53:38;;;;;;;;;;;8.60;96.70;9.20;100373.00;;;;338651;28;96136;-87
2022/02/25 00:53:50;;;;;;;;;;;8.60;96.70;9.20;100377.00;;;;340768;28;83496;-87
2022/02/25 00:54:02;;;;;;;;;;;8.60;96.60;9.10;100372.00;;;;338520;28;96388;-87
2022/02/25 00:54:14;;;;;;;;;;;8.60;96.50;9.20;100371.00;;;;339446;28;83425;-87
2022/02/25 00:54:26;;;;;;;;;;;8.60;96.60;9.20;100373.00;;;;335855;28;97152;-87
2022/02/25 00:54:39;;;;;;;;;;;8.70;96.70;9.20;100374.00;;;;337988;28;82470;-87
2022/02/25 00:54:51;;;;;;;;;;;8.70;96.80;9.10;100370.00;;;;340589;28;95428;-87
2022/02/25 00:55:04;;;;;;;;;;;8.70;96.70;9.10;100369.00;;;;341162;28;83582;-87
2022/02/25 00:55:16;;;;;;;;;;;8.70;96.60;9.20;100376.00;;;;338503;28;94745;-88
2022/02/25 00:55:28;;;;;;;;;;;8.70;96.70;9.20;100376.00;;;;336718;28;83480;-88
2022/02/25 00:55:39;;;;;;;;;;;8.70;96.70;9.20;100373.00;;;;338632;28;96701;-87
2022/02/25 00:55:51;;;;;;;;;;;8.70;96.80;9.00;100371.00;;;;338765;28;83552;-87
2022/02/25 00:56:03;;;;;;;;;;;8.70;96.30;9.00;100382.00;;;;338468;28;96530;-87
2022/02/25 00:56:15;;;;;;;;;;;8.70;96.30;9.00;100377.00;;;;339315;28;83494;-88
2022/02/25 00:56:27;;;;;;;;;;;8.60;96.20;9.00;100377.00;;;;337203;28;97041;-87
2022/02/25 00:56:39;;;;;;;;;;;8.60;96.40;9.10;100373.00;;;;339328;28;83497;-87
2022/02/25 00:56:51;;;;;;;;;;;8.70;96.60;9.10;100373.00;;;;338570;28;96343;-87
2022/02/25 00:57:03;;;;;;;;;;;8.60;96.60;9.10;100377.00;;;;336722;28;83413;-87
2022/02/25 00:57:14;;;;;;;;;;;8.60;96.60;9.20;100373.00;;;;337231;28;95779;-87
2022/02/25 00:57:26;;;;;;;;;;;8.60;96.70;9.20;100379.00;;;;337794;28;82615;-87
2022/02/25 00:57:46;;;;;;;;;;;8.60;96.70;9.20;100377.00;;;;338602;28;97646;-87
2022/02/25 00:57:58;;;;;;;;;;;8.60;96.80;9.20;100371.00;;;;338827;28;83566;-87
2022/02/25 00:58:09;;;;;;;;;;;8.70;96.90;9.20;100381.00;;;;335864;28;96536;-87
2022/02/25 00:58:21;;;;;;;;;;;8.70;96.80;9.20;100379.00;;;;338008;28;82486;-88
2022/02/25 00:58:33;;;;;;;;;;;8.60;96.70;9.20;100374.00;;;;341205;28;96873;-87
2022/02/25 00:58:45;;;;;;;;;;;8.60;96.80;9.10;100376.00;;;;340698;28;83419;-87
2022/02/25 00:58:56;;;;;;;;;;;8.60;96.80;9.00;100380.00;;;;337297;28;97087;-87
2022/02/25 00:59:08;;;;;;;;;;;8.60;96.80;9.00;100380.00;;;;337995;28;83450;-87
2022/02/25 00:59:20;;;;;;;;;;;8.60;96.70;9.10;100375.00;;;;338638;28;91954;-87
2022/02/25 00:59:32;;;;;;;;;;;8.60;96.80;9.00;100369.00;;;;337709;28;82556;-88
2022/02/25 00:59:43;;;;;;;;;;;8.60;96.50;9.00;100379.00;;;;340007;28;93757;-87
2022/02/25 00:59:56;;;;;;;;;;;8.60;96.40;9.10;100380.00;;;;338012;28;83371;-87
2022/02/25 01:00:09;;;;;;;;;;;8.70;96.50;9.10;100377.00;;;;337172;28;96180;-87
2022/02/25 01:00:21;;;;;;;;;;;8.60;96.50;9.10;100377.00;;;;338022;28;83463;-87